Yakima, WA (98904)

10:25 PM PST on January 23, 2017 (GMT -0800)
Reservoir Loop Rd | | Change Station

Elev 1568 ft 46.69 °N, 120.58 °W | Updated 58 seconds ago

Partly Cloudy
Partly Cloudy
21.2 °F
Feels Like 21 °F
N
0.0
Wind Variable Wind from SSE

Today
High -- | Low -- °F
--% Chance of Precip.
Yesterday
High -- | Low -- °F
Precip. -- in
Pressure 29.96 in
Visibility 1.5 miles
Clouds Overcast 200 ft
Windchill 21 °F
Dew Point 21 °F
Humidity 99%
Rainfall 2.17 in
Snow Depth Not available.
7:35 AM 4:53 PM
Waning Crescent, 13% visible
SPECI KYKM 240620Z AUTO 26003KT 1 1/2SM R27/4500VP6000FT BR OVC002 M03/M05 A2996 RMK AO2 T10331050
Pressure 29.96 in
Visibility 1.5 miles
Clouds Overcast 200 ft
Windchill 21 °F
Dew Point 21 °F
Humidity 99%
Rainfall 2.17 in
Snow Depth Not available.
7:35 AM 4:53 PM
Waning Crescent, 13% visible
SPECI KYKM 240620Z AUTO 26003KT 1 1/2SM R27/4500VP6000FT BR OVC002 M03/M05 A2996 RMK AO2 T10331050

Get Your Daily Forecast Email!

Thanks for signing up!

Be on the lookout for a verification email in your inbox.

You'll start receiving the daily forecast at 8 AM.

×

10-Day Weather Forecast

Almanac

Astronomy

Jan. 23, 2017 Rise Set
Actual Time
Civil Twilight
Nautical Twilight
Astronomical Twilight
Moon
Length of Visible Light
Length of Day
Tomorrow will be .
, % of the Moon is Illuminated

Today's Extremes

State Highs State Lows

Community

WunderPhotos

Upload Photos

1,962,540 photos uploaded!

WunderBlog® & News

Nearby

Air Quality

  Air Quality AQ Index Pollutant
Not available.

Snow Depth

Station Depth Elevation

Earthquake Activity

City Distance Mag. Time & Date
Minimum magnitude displayed is 2.5.

Coastal Water Temperatures

Place Temperature

Stations

Nearby Weather Stations

Station Location Temp. Windchill Dew Point Humidity Wind Precip. Elev Updated Type
                   

Watches & Warnings

There are currently no watches in effect.